createdAt,value
2023-01-26T00:01:52.349Z,98365.65
2023-01-26T00:04:20.374Z,98363.48
2023-01-26T00:06:49.282Z,98363.53
2023-01-26T00:09:17.272Z,98360.98
2023-01-26T00:11:45.246Z,98358.55
2023-01-26T00:14:13.216Z,98359.19
2023-01-26T00:16:41.277Z,98352.28
2023-01-26T00:19:09.497Z,98348.36
2023-01-26T00:21:37.481Z,98347.73
2023-01-26T00:24:05.788Z,98346.58
2023-01-26T00:26:34.035Z,98348.80
2023-01-26T00:29:02.005Z,98346.08
2023-01-26T00:31:30.008Z,98343.29
2023-01-26T00:33:58.065Z,98338.95
2023-01-26T00:36:26.102Z,98338.20
2023-01-26T00:38:54.293Z,98336.33
2023-01-26T00:41:57.772Z,98339.91
2023-01-26T00:44:25.703Z,98333.69
2023-01-26T00:46:53.884Z,98331.10
2023-01-26T00:49:21.985Z,98329.70
2023-01-26T00:51:49.984Z,98324.75
2023-01-26T00:54:17.925Z,98328.30
2023-01-26T00:56:47.758Z,98327.26
2023-01-26T00:59:15.722Z,98325.11
2023-01-26T01:01:47.551Z,98320.48
2023-01-26T01:04:16.675Z,98320.63
2023-01-26T01:06:44.699Z,98313.88
2023-01-26T01:09:13.162Z,98311.48
2023-01-26T01:11:42.928Z,98311.03
2023-01-26T01:14:13.132Z,98311.29
2023-01-26T01:16:42.225Z,98309.52
2023-01-26T01:19:14.410Z,98311.20
2023-01-26T01:21:43.639Z,98308.11
2023-01-26T01:24:12.747Z,98305.23
2023-01-26T01:26:40.850Z,98304.88
2023-01-26T01:29:13.566Z,98302.05
2023-01-26T01:31:43.311Z,98300.89
2023-01-26T01:34:11.454Z,98301.98
2023-01-26T01:36:39.682Z,98298.46
2023-01-26T01:39:07.660Z,98294.52
2023-01-26T01:41:35.984Z,98288.52
2023-01-26T01:44:19.104Z,98277.53
2023-01-26T01:46:53.268Z,98281.95
2023-01-26T01:49:32.320Z,98274.20
2023-01-26T01:52:17.692Z,98275.80
2023-01-26T01:54:58.429Z,98272.63
2023-01-26T01:57:45.174Z,98264.83
2023-01-26T02:00:20.993Z,98262.09
2023-01-26T02:03:19.121Z,98260.13
2023-01-26T02:06:01.969Z,98263.40
2023-01-26T02:08:36.438Z,98259.84
2023-01-26T02:11:27.201Z,98254.69
2023-01-26T02:13:58.273Z,98249.20
2023-01-26T02:16:26.299Z,98238.60
2023-01-26T02:18:54.696Z,98238.45
2023-01-26T02:21:24.432Z,98233.81
2023-01-26T02:24:36.026Z,98231.41
2023-01-26T02:27:04.510Z,98223.04
2023-01-26T02:29:33.786Z,98219.99
2023-01-26T02:32:01.797Z,98217.67
2023-01-26T02:34:30.051Z,98218.27
2023-01-26T02:36:59.111Z,98217.03
2023-01-26T02:39:53.084Z,98213.48
2023-01-26T02:42:39.275Z,98208.45
2023-01-26T02:45:08.753Z,98210.58
2023-01-26T02:47:36.779Z,98207.77
2023-01-26T02:50:06.203Z,98207.49
2023-01-26T02:52:34.461Z,98203.73
2023-01-26T02:55:28.569Z,98205.36
2023-01-26T02:58:01.438Z,98203.14
2023-01-26T03:00:37.494Z,98197.14
2023-01-26T03:03:23.550Z,98194.32
2023-01-26T03:05:52.821Z,98192.55
2023-01-26T03:08:20.792Z,98191.16
2023-01-26T03:10:48.901Z,98185.07
2023-01-26T03:13:18.852Z,98185.88
2023-01-26T03:15:54.644Z,98186.70
2023-01-26T03:18:42.736Z,98184.27
2023-01-26T03:21:35.746Z,98179.23
2023-01-26T03:24:24.026Z,98172.88
2023-01-26T03:27:15.775Z,98171.05
2023-01-26T03:29:43.908Z,98165.95
2023-01-26T03:32:13.045Z,98166.25
2023-01-26T03:34:42.077Z,98160.87
2023-01-26T03:37:10.533Z,98161.88
2023-01-26T03:40:03.129Z,98161.66
2023-01-26T03:42:49.876Z,98157.67
2023-01-26T03:45:36.482Z,98164.50
2023-01-26T03:48:28.574Z,98157.82
2023-01-26T03:51:16.673Z,98151.81
2023-01-26T03:54:03.970Z,98148.66
2023-01-26T03:56:35.439Z,98148.94
2023-01-26T03:59:10.084Z,98147.98
2023-01-26T04:02:01.916Z,98145.44
2023-01-26T04:04:49.034Z,98146.92
2023-01-26T04:07:36.319Z,98143.83
2023-01-26T04:10:04.626Z,98141.73
2023-01-26T04:12:32.699Z,98137.80
2023-01-26T04:15:37.861Z,98137.17
2023-01-26T04:18:26.459Z,98138.17
2023-01-26T04:21:14.598Z,98130.38
2023-01-26T04:23:44.788Z,98125.27
2023-01-26T04:26:12.846Z,98130.70
2023-01-26T04:28:41.415Z,98123.58
2023-01-26T04:31:09.637Z,98127.24
2023-01-26T04:33:38.788Z,98127.06
2023-01-26T04:36:09.633Z,98122.45
2023-01-26T04:38:41.142Z,98124.29
2023-01-26T04:41:09.259Z,98124.08
2023-01-26T04:43:44.333Z,98120.58
2023-01-26T04:46:12.918Z,98121.63
2023-01-26T04:48:42.853Z,98115.69
2023-01-26T04:51:20.465Z,98109.54
2023-01-26T04:53:50.069Z,98113.02
2023-01-26T04:56:31.126Z,98115.79
2023-01-26T04:59:02.652Z,98119.63
2023-01-26T05:01:32.075Z,98123.98
2023-01-26T05:04:02.114Z,98120.08
2023-01-26T05:06:31.664Z,98117.08
2023-01-26T05:09:00.112Z,98118.13
2023-01-26T05:11:29.422Z,98116.66
2023-01-26T05:14:19.051Z,98113.86
2023-01-26T05:17:09.993Z,98113.42
2023-01-26T05:19:49.778Z,98111.86
2023-01-26T05:22:33.843Z,98112.96
2023-01-26T05:25:22.676Z,98111.81
2023-01-26T05:27:59.005Z,98114.49
2023-01-26T05:30:27.384Z,98117.20
2023-01-26T05:33:06.174Z,98113.93
2023-01-26T05:35:35.357Z,98112.79
2023-01-26T05:38:04.635Z,98108.77
2023-01-26T05:40:36.130Z,98111.35
2023-01-26T05:43:04.216Z,98109.31
2023-01-26T05:45:41.976Z,98112.95
2023-01-26T05:48:10.967Z,98110.40
2023-01-26T05:50:39.623Z,98109.34
2023-01-26T05:53:23.775Z,98108.38
2023-01-26T05:55:52.619Z,98106.98
2023-01-26T05:58:24.668Z,98106.70
2023-01-26T06:00:54.535Z,98111.79
2023-01-26T06:03:35.727Z,98111.81
2023-01-26T06:06:04.648Z,98110.45
2023-01-26T06:08:48.641Z,98106.04
2023-01-26T06:11:35.447Z,98106.75
2023-01-26T06:14:19.839Z,98103.95
2023-01-26T06:16:48.027Z,98098.77
2023-01-26T06:19:16.652Z,98107.40
2023-01-26T06:21:47.597Z,98109.92
2023-01-26T06:24:15.769Z,98104.73
2023-01-26T06:26:44.092Z,98099.85
2023-01-26T06:29:12.999Z,98101.25
2023-01-26T06:31:42.259Z,98103.70
2023-01-26T06:34:11.437Z,98099.38
2023-01-26T06:36:42.124Z,98097.77
2023-01-26T06:39:16.160Z,98099.88
2023-01-26T06:41:44.809Z,98099.28
2023-01-26T06:44:15.974Z,98102.09
2023-01-26T06:46:44.728Z,98100.77
2023-01-26T06:49:13.035Z,98099.68
2023-01-26T06:51:50.835Z,98103.21
2023-01-26T06:54:19.219Z,98106.67
2023-01-26T06:57:07.903Z,98103.41
2023-01-26T07:00:02.867Z,98101.44
2023-01-26T07:02:53.776Z,98104.34
2023-01-26T07:05:22.015Z,98105.81
2023-01-26T07:07:50.688Z,98106.52
2023-01-26T07:10:18.819Z,98103.41
2023-01-26T07:12:47.709Z,98107.95
2023-01-26T07:15:16.609Z,98110.95
2023-01-26T07:17:44.627Z,98104.70
2023-01-26T07:20:13.321Z,98103.83
2023-01-26T07:22:43.887Z,98101.05
2023-01-26T07:25:13.435Z,98098.80
2023-01-26T07:27:41.546Z,98092.09
2023-01-26T07:30:14.605Z,98089.41
2023-01-26T07:32:45.055Z,98089.17
2023-01-26T07:35:13.052Z,98090.23
2023-01-26T07:37:41.660Z,98090.74
2023-01-26T07:40:11.216Z,98085.63
2023-01-26T07:42:40.533Z,98080.63
2023-01-26T07:45:29.142Z,98089.60
2023-01-26T07:47:58.656Z,98089.03
2023-01-26T07:50:26.989Z,98085.02
2023-01-26T07:52:56.848Z,98090.55
2023-01-26T07:55:26.588Z,98088.63
2023-01-26T07:57:54.565Z,98093.41
2023-01-26T08:00:23.050Z,98088.79
2023-01-26T08:02:51.610Z,98085.46
2023-01-26T08:05:20.032Z,98087.23
2023-01-26T08:07:49.082Z,98089.05
2023-01-26T08:10:18.713Z,98088.30
2023-01-26T08:12:46.760Z,98086.66
2023-01-26T08:15:17.528Z,98082.86
2023-01-26T08:17:46.413Z,98088.45
2023-01-26T08:20:15.225Z,98084.72
2023-01-26T08:22:44.307Z,98084.04
2023-01-26T08:25:12.481Z,98082.70
2023-01-26T08:27:40.718Z,98092.71
2023-01-26T08:30:11.497Z,98087.87
2023-01-26T08:32:40.125Z,98086.38
2023-01-26T08:35:10.400Z,98088.49
2023-01-26T08:37:38.984Z,98089.48
2023-01-26T08:40:11.491Z,98086.48
2023-01-26T08:42:39.811Z,98088.32
2023-01-26T08:45:09.032Z,98091.49
2023-01-26T08:47:43.551Z,98090.70
2023-01-26T08:50:13.080Z,98090.96
2023-01-26T08:52:41.263Z,98090.98
2023-01-26T08:55:12.150Z,98086.45
2023-01-26T08:57:40.303Z,98083.92
2023-01-26T09:00:09.185Z,98082.77
2023-01-26T09:02:37.729Z,98079.98
2023-01-26T09:05:15.243Z,98072.77
2023-01-26T09:07:46.425Z,98074.19
2023-01-26T09:10:15.230Z,98072.91
2023-01-26T09:12:44.135Z,98066.88
2023-01-26T09:15:12.538Z,98064.33
2023-01-26T09:17:42.537Z,98062.13
2023-01-26T09:20:12.451Z,98057.84
2023-01-26T09:22:41.125Z,98054.83
2023-01-26T09:25:12.092Z,98052.55
2023-01-26T09:27:40.921Z,98052.23
2023-01-26T09:30:10.505Z,98058.45
2023-01-26T09:32:39.350Z,98054.30
2023-01-26T09:35:14.490Z,98049.41
2023-01-26T09:37:44.915Z,98045.84
2023-01-26T09:40:33.888Z,98042.47
2023-01-26T09:43:21.083Z,98039.16
2023-01-26T09:46:28.300Z,98035.20
2023-01-26T09:49:07.398Z,98032.15
2023-01-26T09:51:41.882Z,98030.56
2023-01-26T09:54:17.116Z,98026.77
2023-01-26T09:56:46.601Z,98025.45
2023-01-26T09:59:39.985Z,98025.11
2023-01-26T10:02:11.930Z,98019.96
2023-01-26T10:04:45.385Z,98014.92
2023-01-26T10:07:15.847Z,98009.09
2023-01-26T10:09:53.361Z,98007.93
2023-01-26T10:12:38.248Z,98005.48
2023-01-26T10:15:19.009Z,98002.23
2023-01-26T10:17:50.193Z,97999.70
2023-01-26T10:20:28.757Z,97997.66
2023-01-26T10:23:05.986Z,97993.35
2023-01-26T10:25:37.410Z,97989.15
2023-01-26T10:28:24.813Z,97984.66
2023-01-26T10:30:54.128Z,97982.98
2023-01-26T10:33:43.987Z,97981.28
2023-01-26T10:36:13.845Z,97979.48
2023-01-26T10:38:44.519Z,97978.13
2023-01-26T10:41:24.966Z,97974.45
2023-01-26T10:44:05.744Z,97964.19
2023-01-26T10:46:36.435Z,97957.01
2023-01-26T10:49:12.088Z,97952.27
2023-01-26T10:51:47.121Z,97959.75
2023-01-26T10:54:25.856Z,97955.98
2023-01-26T10:57:01.678Z,97952.84
2023-01-26T10:59:51.770Z,97945.86
2023-01-26T11:02:24.194Z,97938.21
2023-01-26T11:05:06.238Z,97926.64
2023-01-26T11:07:40.133Z,97925.28
2023-01-26T11:10:34.574Z,97924.88
2023-01-26T11:13:09.384Z,97914.11
2023-01-26T11:15:39.915Z,97916.55
2023-01-26T11:18:42.726Z,97915.66
2023-01-26T11:21:33.290Z,97907.98
2023-01-26T11:26:36.207Z,97904.09
2023-01-26T11:28:28.590Z,97905.55
2023-01-26T11:31:16.051Z,97909.67
2023-01-26T11:33:58.246Z,97903.41
2023-01-26T11:36:47.418Z,97897.77
2023-01-26T11:39:35.457Z,97891.69
2023-01-26T11:42:35.378Z,97885.52
2023-01-26T11:45:43.301Z,97876.94
2023-01-26T11:48:37.466Z,97881.67
2023-01-26T11:51:15.831Z,97875.80
2023-01-26T11:53:53.637Z,97871.36
2023-01-26T11:56:42.389Z,97868.77
2023-01-26T11:59:41.503Z,97863.98
2023-01-26T12:02:37.793Z,97854.84
2023-01-26T12:05:13.363Z,97852.54
2023-01-26T12:08:04.887Z,97850.79
2023-01-26T12:10:47.980Z,97847.81
2023-01-26T12:13:35.075Z,97848.11
2023-01-26T12:16:19.718Z,97849.34
2023-01-26T12:19:11.469Z,97849.08
2023-01-26T12:21:45.015Z,97849.34
2023-01-26T12:25:04.891Z,97845.85
2023-01-26T12:27:28.851Z,97840.52
2023-01-26T12:30:23.410Z,97837.15
2023-01-26T12:32:52.420Z,97830.29
2023-01-26T12:35:35.709Z,97822.06
2023-01-26T12:38:44.378Z,97816.27
2023-01-26T12:41:38.627Z,97816.30
2023-01-26T12:44:18.716Z,97818.36
2023-01-26T12:46:58.365Z,97816.64
2023-01-26T12:49:50.833Z,97819.60
2023-01-26T12:52:40.354Z,97818.92
2023-01-26T12:55:18.618Z,97819.98
2023-01-26T12:57:54.953Z,97822.84
2023-01-26T13:00:30.119Z,97818.02
2023-01-26T13:03:18.053Z,97810.94
2023-01-26T13:05:55.226Z,97807.93
2023-01-26T13:08:32.403Z,97807.91
2023-01-26T13:11:09.299Z,97805.44
2023-01-26T13:13:57.882Z,97796.59
2023-01-26T13:16:30.921Z,97797.60
2023-01-26T13:19:01.744Z,97791.60
2023-01-26T13:21:39.109Z,97792.84
2023-01-26T13:24:26.500Z,97795.60
2023-01-26T13:26:58.887Z,97791.25
2023-01-26T13:29:27.644Z,97786.42
2023-01-26T13:31:59.175Z,97785.73
2023-01-26T13:34:33.959Z,97786.87
2023-01-26T13:37:45.599Z,97778.27
2023-01-26T13:40:24.029Z,97778.19
2023-01-26T13:43:25.639Z,97781.02
2023-01-26T13:46:10.366Z,97782.46
2023-01-26T13:48:39.486Z,97780.83
2023-01-26T13:51:12.724Z,97776.36
2023-01-26T13:53:45.958Z,97772.54
2023-01-26T13:56:33.048Z,97771.79
2023-01-26T13:59:20.913Z,97764.52
2023-01-26T14:01:52.938Z,97766.13
2023-01-26T14:04:26.749Z,97767.29
2023-01-26T14:07:07.782Z,97769.87
2023-01-26T14:10:02.711Z,97768.93
2023-01-26T14:12:35.691Z,97765.85
2023-01-26T14:15:08.211Z,97763.13
2023-01-26T14:17:50.145Z,97765.83
2023-01-26T14:20:25.901Z,97765.73
2023-01-26T14:23:15.746Z,97763.61
2023-01-26T14:25:57.817Z,97761.78
2023-01-26T14:28:31.251Z,97755.62
2023-01-26T14:31:23.276Z,97752.09
2023-01-26T14:33:57.864Z,97749.64
2023-01-26T14:36:29.317Z,97743.36
2023-01-26T14:38:57.465Z,97738.64
2023-01-26T14:41:34.810Z,97735.95
2023-01-26T14:44:06.500Z,97730.66
2023-01-26T14:47:06.055Z,97725.74
2023-01-26T14:49:46.044Z,97717.67
2023-01-26T14:52:30.895Z,97714.11
2023-01-26T14:55:26.401Z,97717.52
2023-01-26T14:58:00.440Z,97714.23
2023-01-26T15:00:33.780Z,97710.09
2023-01-26T15:03:06.918Z,97710.48
2023-01-26T15:05:40.316Z,97708.04
2023-01-26T15:08:23.920Z,97700.70
2023-01-26T15:11:17.983Z,97700.63
2023-01-26T15:13:52.485Z,97695.41
2023-01-26T15:16:25.545Z,97693.41
2023-01-26T15:19:01.886Z,97695.73
2023-01-26T15:21:39.612Z,97699.51
2023-01-26T15:24:15.593Z,97701.09
2023-01-26T15:26:44.871Z,97705.89
2023-01-26T15:29:31.581Z,97702.04
2023-01-26T15:32:01.193Z,97703.23
2023-01-26T15:34:38.395Z,97699.85
2023-01-26T15:37:33.866Z,97702.32
2023-01-26T15:40:03.856Z,97702.54
2023-01-26T15:42:33.980Z,97704.41
2023-01-26T15:45:02.800Z,97705.50
2023-01-26T15:47:32.439Z,97698.97
2023-01-26T15:50:00.545Z,97699.89
2023-01-26T15:52:30.555Z,97696.48
2023-01-26T15:54:58.883Z,97695.17
2023-01-26T15:57:27.416Z,97696.48
2023-01-26T15:59:55.429Z,97700.58
2023-01-26T16:02:24.068Z,97699.08
2023-01-26T16:04:52.565Z,97696.30
2023-01-26T16:07:20.905Z,97697.45
2023-01-26T16:09:51.003Z,97695.21
2023-01-26T16:12:31.309Z,97693.84
2023-01-26T16:15:03.849Z,97691.64
2023-01-26T16:17:31.886Z,97689.36
2023-01-26T16:20:00.401Z,97692.35
2023-01-26T16:22:29.837Z,97689.62
2023-01-26T16:24:58.229Z,97683.35
2023-01-26T16:27:27.666Z,97678.79
2023-01-26T16:29:56.063Z,97683.83
2023-01-26T16:32:29.036Z,97684.23
2023-01-26T16:34:57.015Z,97678.05
2023-01-26T16:37:25.756Z,97682.52
2023-01-26T16:39:53.723Z,97680.51
2023-01-26T16:42:21.917Z,97685.36
2023-01-26T16:44:50.083Z,97687.36
2023-01-26T16:47:18.866Z,97685.66
2023-01-26T16:49:51.844Z,97684.50
2023-01-26T16:52:20.034Z,97681.50
2023-01-26T16:54:50.560Z,97681.64
2023-01-26T16:57:18.586Z,97681.68
2023-01-26T16:59:46.691Z,97678.84
2023-01-26T17:02:27.764Z,97674.59
2023-01-26T17:04:56.402Z,97676.08
2023-01-26T17:07:24.387Z,97672.17
2023-01-26T17:09:53.760Z,97669.06
2023-01-26T17:12:23.157Z,97667.38
2023-01-26T17:14:51.340Z,97663.15
2023-01-26T17:17:20.508Z,97660.95
2023-01-26T17:19:49.195Z,97660.64
2023-01-26T17:22:18.658Z,97660.34
2023-01-26T17:24:46.792Z,97652.45
2023-01-26T17:27:15.778Z,97647.21
2023-01-26T17:29:43.840Z,97646.41
2023-01-26T17:32:12.063Z,97648.17
2023-01-26T17:34:40.117Z,97647.66
2023-01-26T17:37:08.200Z,97644.73
2023-01-26T17:39:36.577Z,97646.17
2023-01-26T17:42:04.735Z,97646.35
2023-01-26T17:44:33.526Z,97644.64
2023-01-26T17:47:01.589Z,97646.34
2023-01-26T17:49:29.799Z,97647.73
2023-01-26T17:51:58.089Z,97644.10
2023-01-26T17:54:26.690Z,97646.90
2023-01-26T17:56:55.902Z,97643.59
2023-01-26T17:59:25.337Z,97641.56
2023-01-26T18:01:54.002Z,97643.39
2023-01-26T18:04:22.685Z,97644.21
2023-01-26T18:06:51.078Z,97643.83
2023-01-26T18:09:20.304Z,97642.02
2023-01-26T18:11:48.844Z,97638.42
2023-01-26T18:14:17.055Z,97636.29
2023-01-26T18:16:45.325Z,97631.58
2023-01-26T18:19:13.683Z,97633.85
2023-01-26T18:21:41.959Z,97632.61
2023-01-26T18:24:10.296Z,97634.43
2023-01-26T18:26:38.695Z,97630.02
2023-01-26T18:29:10.871Z,97630.64
2023-01-26T18:31:43.546Z,97632.39
2023-01-26T18:34:12.303Z,97626.01
2023-01-26T18:36:40.458Z,97623.20
2023-01-26T18:39:12.931Z,97624.92
2023-01-26T18:41:43.366Z,97622.86
2023-01-26T18:44:11.742Z,97622.80
2023-01-26T18:46:40.013Z,97621.34
2023-01-26T18:49:09.146Z,97619.29
2023-01-26T18:51:37.145Z,97623.25
2023-01-26T18:54:05.870Z,97621.28
2023-01-26T18:56:35.218Z,97624.46
2023-01-26T18:59:04.462Z,97623.46
2023-01-26T19:01:32.622Z,97619.51
2023-01-26T19:04:03.872Z,97621.17
2023-01-26T19:06:35.375Z,97625.06
2023-01-26T19:09:06.888Z,97618.53
2023-01-26T19:11:37.660Z,97616.08
2023-01-26T19:14:07.423Z,97612.95
2023-01-26T19:16:36.089Z,97607.41
2023-01-26T19:19:05.185Z,97608.23
2023-01-26T19:21:34.100Z,97602.52
2023-01-26T19:24:07.318Z,97596.67
2023-01-26T19:26:35.535Z,97598.12
2023-01-26T19:29:05.645Z,97589.86
2023-01-26T19:31:35.782Z,97588.39
2023-01-26T19:34:07.852Z,97578.75
2023-01-26T19:36:36.576Z,97579.50
2023-01-26T19:39:07.311Z,97574.95
2023-01-26T19:41:35.590Z,97574.35
2023-01-26T19:44:03.630Z,97570.42
2023-01-26T19:46:32.212Z,97569.02
2023-01-26T19:49:00.977Z,97564.71
2023-01-26T19:51:29.597Z,97560.71
2023-01-26T19:53:59.175Z,97557.77
2023-01-26T19:56:29.754Z,97557.93
2023-01-26T19:59:01.083Z,97555.05
2023-01-26T20:01:31.178Z,97550.95
2023-01-26T20:04:03.283Z,97550.96
2023-01-26T20:06:35.113Z,97553.11
2023-01-26T20:09:06.343Z,97550.05
2023-01-26T20:11:35.479Z,97547.31
2023-01-26T20:14:08.694Z,97547.54
2023-01-26T20:16:38.006Z,97542.70
2023-01-26T20:19:06.573Z,97539.75
2023-01-26T20:21:35.792Z,97533.31
2023-01-26T20:24:05.983Z,97528.06
2023-01-26T20:26:35.276Z,97527.84
2023-01-26T20:29:04.941Z,97521.08
2023-01-26T20:31:34.198Z,97519.13
2023-01-26T20:34:05.945Z,97518.33
2023-01-26T20:36:34.961Z,97513.68
2023-01-26T20:39:04.803Z,97512.10
2023-01-26T20:41:33.771Z,97508.80
2023-01-26T20:44:05.016Z,97503.61
2023-01-26T20:46:39.256Z,97500.95
2023-01-26T20:49:11.048Z,97496.77
2023-01-26T20:51:42.889Z,97497.92
2023-01-26T20:54:13.626Z,97491.37
2023-01-26T20:56:50.286Z,97483.36
2023-01-26T20:59:19.158Z,97485.63
2023-01-26T21:01:47.503Z,97490.82
2023-01-26T21:04:15.431Z,97483.47
2023-01-26T21:06:44.721Z,97478.90
2023-01-26T21:09:13.125Z,97481.62
2023-01-26T21:11:41.495Z,97473.03
2023-01-26T21:14:13.857Z,97473.71
2023-01-26T21:16:43.129Z,97478.62
2023-01-26T21:19:11.197Z,97487.13
2023-01-26T21:21:39.277Z,97487.81
2023-01-26T21:24:07.541Z,97481.06
2023-01-26T21:26:35.789Z,97478.23
2023-01-26T21:29:04.184Z,97482.83
2023-01-26T21:31:34.013Z,97477.60
2023-01-26T21:34:02.684Z,97478.17
2023-01-26T21:36:32.028Z,97479.14
2023-01-26T21:39:01.649Z,97474.52
2023-01-26T21:41:52.516Z,97473.82
2023-01-26T21:44:25.048Z,97474.55
2023-01-26T21:46:56.155Z,97474.58
2023-01-26T21:49:25.221Z,97476.89
2023-01-26T21:52:12.347Z,97480.64
2023-01-26T21:54:40.541Z,97479.23
2023-01-26T21:57:29.437Z,97478.35
2023-01-26T21:59:57.528Z,97472.86
2023-01-26T22:02:25.613Z,97471.06
2023-01-26T22:04:53.988Z,97471.85
2023-01-26T22:07:22.071Z,97464.93
2023-01-26T22:09:50.082Z,97458.96
2023-01-26T22:12:19.159Z,97450.13
2023-01-26T22:14:47.329Z,97444.98
2023-01-26T22:17:15.343Z,97443.91
2023-01-26T22:19:43.401Z,97445.06
2023-01-26T22:22:12.707Z,97447.54
2023-01-26T22:24:40.829Z,97450.27
2023-01-26T22:27:08.843Z,97446.93
2023-01-26T22:29:36.972Z,97442.58
2023-01-26T22:32:05.404Z,97442.00
2023-01-26T22:34:33.483Z,97449.58
2023-01-26T22:37:01.421Z,97450.31
2023-01-26T22:39:29.483Z,97444.46
2023-01-26T22:41:57.497Z,97444.65
2023-01-26T22:44:25.396Z,97437.79
2023-01-26T22:46:53.485Z,97432.61
2023-01-26T22:49:21.424Z,97434.87
2023-01-26T22:51:49.380Z,97431.00
2023-01-26T22:54:19.195Z,97431.52
2023-01-26T22:56:47.274Z,97434.20
2023-01-26T22:59:15.304Z,97430.65
2023-01-26T23:01:43.415Z,97426.46
2023-01-26T23:04:11.502Z,97423.02
2023-01-26T23:06:39.596Z,97419.77
2023-01-26T23:09:08.645Z,97417.90
2023-01-26T23:11:36.730Z,97412.70
2023-01-26T23:14:06.012Z,97411.21
2023-01-26T23:16:33.969Z,97415.69
2023-01-26T23:19:01.921Z,97414.21
2023-01-26T23:21:30.592Z,97410.22
2023-01-26T23:23:58.971Z,97409.29
2023-01-26T23:26:27.179Z,97411.73
2023-01-26T23:28:55.383Z,97409.94
2023-01-26T23:31:23.387Z,97407.33
2023-01-26T23:33:51.575Z,97400.93
2023-01-26T23:36:20.717Z,97405.17
2023-01-26T23:38:49.173Z,97401.05
2023-01-26T23:41:17.723Z,97390.79
2023-01-26T23:43:46.150Z,97392.50
2023-01-26T23:46:14.146Z,97405.78
2023-01-26T23:48:43.674Z,97403.17
2023-01-26T23:51:12.788Z,97398.17
2023-01-26T23:53:41.415Z,97385.08
2023-01-26T23:56:15.339Z,97379.95
2023-01-26T23:58:44.250Z,97384.23
